createdAt,value
2019-02-21T00:04:04.108Z,24.67
2019-02-21T00:08:59.131Z,23.67
2019-02-21T00:13:57.069Z,22.43
2019-02-21T00:18:51.744Z,23.97
2019-02-21T00:23:50.861Z,21.07
2019-02-21T00:28:45.253Z,20.50
2019-02-21T00:33:41.710Z,19.63
2019-02-21T00:38:37.156Z,19.93
2019-02-21T00:43:31.748Z,19.10
2019-02-21T00:48:29.900Z,21.33
2019-02-21T00:53:29.636Z,24.40
2019-02-21T00:58:25.850Z,20.23
2019-02-21T01:03:29.551Z,20.63
2019-02-21T01:08:24.904Z,25.57
2019-02-21T01:13:22.529Z,24.37
2019-02-21T01:18:20.310Z,21.03
2019-02-21T01:23:24.594Z,23.37
2019-02-21T01:28:19.775Z,42.73
2019-02-21T01:33:14.057Z,27.13
2019-02-21T01:38:11.493Z,34.27
2019-02-21T01:43:07.938Z,28.80
2019-02-21T01:48:06.937Z,21.50
2019-02-21T01:53:07.632Z,16.03
2019-02-21T01:58:03.966Z,16.73
2019-02-21T02:02:58.567Z,16.43
2019-02-21T02:07:55.733Z,14.90
2019-02-21T02:12:50.475Z,14.53
2019-02-21T02:17:45.294Z,16.20
2019-02-21T02:22:42.699Z,16.87
2019-02-21T02:27:40.384Z,16.30
2019-02-21T02:32:35.414Z,16.23
2019-02-21T02:37:29.670Z,17.97
2019-02-21T02:42:24.261Z,18.27
2019-02-21T02:47:20.510Z,16.73
2019-02-21T02:52:16.639Z,16.57
2019-02-21T02:57:10.697Z,16.20
2019-02-21T03:02:04.840Z,17.23
2019-02-21T03:07:00.662Z,16.50
2019-02-21T03:11:55.489Z,17.13
2019-02-21T03:16:50.483Z,16.07
2019-02-21T03:21:45.340Z,16.93
2019-02-21T03:26:40.363Z,17.90
2019-02-21T03:31:53.355Z,16.50
2019-02-21T03:36:34.346Z,17.37
2019-02-21T03:41:30.496Z,16.60
2019-02-21T03:46:26.142Z,17.20
2019-02-21T03:51:21.544Z,16.03
2019-02-21T03:56:15.647Z,16.97
2019-02-21T04:01:10.116Z,15.70
2019-02-21T04:06:08.317Z,15.77
2019-02-21T04:11:04.166Z,16.23
2019-02-21T04:15:58.505Z,15.97
2019-02-21T04:20:59.088Z,15.40
2019-02-21T04:25:53.287Z,16.17
2019-02-21T04:30:51.094Z,15.23
2019-02-21T04:35:47.615Z,16.97
2019-02-21T04:40:44.196Z,16.10
2019-02-21T04:45:43.114Z,18.13
2019-02-21T04:50:39.395Z,17.20
2019-02-21T04:55:34.492Z,17.57
2019-02-21T05:00:30.748Z,20.47
2019-02-21T05:05:25.363Z,16.87
2019-02-21T05:10:23.870Z,18.53
2019-02-21T05:15:17.932Z,16.63
2019-02-21T05:20:12.778Z,16.03
2019-02-21T05:25:11.839Z,16.17
2019-02-21T05:30:12.199Z,16.90
2019-02-21T05:35:10.570Z,17.40
2019-02-21T05:40:20.549Z,17.43
2019-02-21T05:45:28.579Z,18.33
2019-02-21T05:50:40.670Z,17.67
2019-02-21T05:55:55.307Z,19.37
2019-02-21T06:01:06.958Z,18.47
2019-02-21T06:06:08.685Z,17.93
2019-02-21T06:11:10.716Z,17.97
2019-02-21T06:16:13.218Z,17.20
2019-02-21T06:21:14.038Z,16.93
2019-02-21T06:26:11.531Z,18.33
2019-02-21T06:31:09.797Z,18.77
2019-02-21T06:36:10.311Z,18.83
2019-02-21T06:41:07.127Z,24.33
2019-02-21T06:46:03.280Z,17.63
2019-02-21T06:50:58.604Z,18.33
2019-02-21T06:56:04.491Z,17.20
2019-02-21T07:01:03.096Z,19.53
2019-02-21T07:06:01.192Z,20.13
2019-02-21T07:11:05.698Z,17.50
2019-02-21T07:15:52.999Z,18.43
2019-02-21T07:20:51.127Z,20.27
2019-02-21T07:25:47.770Z,17.53
2019-02-21T07:31:01.425Z,18.57
2019-02-21T07:35:57.052Z,17.47
2019-02-21T07:40:52.569Z,17.33
2019-02-21T07:45:49.972Z,19.53
2019-02-21T07:50:45.322Z,17.33
2019-02-21T07:55:44.521Z,18.87
2019-02-21T08:00:39.823Z,19.07
2019-02-21T08:05:37.286Z,18.90
2019-02-21T08:10:34.055Z,20.43
2019-02-21T08:15:30.020Z,20.73
2019-02-21T08:20:33.614Z,21.07
2019-02-21T08:25:23.499Z,20.63
2019-02-21T08:30:19.207Z,21.17
2019-02-21T08:35:18.612Z,21.13
2019-02-21T08:40:13.052Z,18.70
2019-02-21T08:45:07.578Z,20.20
2019-02-21T08:50:06.212Z,20.00
2019-02-21T08:55:08.259Z,21.03
2019-02-21T09:00:16.499Z,21.67
2019-02-21T09:05:13.019Z,20.33
2019-02-21T09:10:10.404Z,21.17
2019-02-21T09:15:07.418Z,19.60
2019-02-21T09:20:08.694Z,20.63
2019-02-21T09:25:06.341Z,20.70
2019-02-21T09:30:05.146Z,19.67
2019-02-21T09:35:00.355Z,24.07
2019-02-21T09:39:58.496Z,19.50
2019-02-21T09:44:53.164Z,21.57
2019-02-21T09:49:48.151Z,22.60
2019-02-21T09:54:49.337Z,23.10
2019-02-21T09:59:43.578Z,22.47
2019-02-21T10:04:37.702Z,21.10
2019-02-21T10:09:32.516Z,22.40
2019-02-21T10:14:26.692Z,20.57
2019-02-21T10:19:24.145Z,21.53
2019-02-21T10:24:19.871Z,22.60
2019-02-21T10:29:16.259Z,19.97
2019-02-21T10:34:12.691Z,20.10
2019-02-21T10:39:13.484Z,19.77
2019-02-21T10:44:08.743Z,20.77
2019-02-21T10:49:12.491Z,20.87
2019-02-21T10:54:07.542Z,20.77
2019-02-21T10:59:09.249Z,20.93
2019-02-21T11:04:09.002Z,23.40
2019-02-21T11:09:09.343Z,24.83
2019-02-21T11:14:03.859Z,27.13
2019-02-21T11:19:02.795Z,21.77
2019-02-21T11:23:57.499Z,22.33
2019-02-21T11:28:52.175Z,22.10
2019-02-21T11:33:48.913Z,22.90
2019-02-21T11:38:43.417Z,19.47
2019-02-21T11:43:38.125Z,19.50
2019-02-21T11:48:36.179Z,22.27
2019-02-21T11:53:31.654Z,21.83
2019-02-21T11:58:27.798Z,19.70
2019-02-21T12:03:23.777Z,21.20
2019-02-21T12:08:20.491Z,20.10
2019-02-21T12:13:15.395Z,19.07
2019-02-21T12:18:12.847Z,19.77
2019-02-21T12:23:11.002Z,19.53
2019-02-21T12:28:09.485Z,19.27
2019-02-21T12:33:03.810Z,19.23
2019-02-21T12:38:00.935Z,18.77
2019-02-21T12:43:02.879Z,17.70
2019-02-21T12:47:59.014Z,18.63
2019-02-21T12:52:56.881Z,17.07
2019-02-21T12:57:52.268Z,16.07
2019-02-21T13:02:48.243Z,15.00
2019-02-21T13:07:47.125Z,16.43
2019-02-21T13:12:41.070Z,14.93
2019-02-21T13:17:37.084Z,16.33
2019-02-21T13:22:32.870Z,16.33
2019-02-21T13:27:26.965Z,16.77
2019-02-21T13:32:23.476Z,17.80
2019-02-21T13:37:28.870Z,16.20
2019-02-21T13:42:18.945Z,15.53
2019-02-21T13:47:17.044Z,13.43
2019-02-21T13:52:16.707Z,12.77
2019-02-21T13:57:22.381Z,14.67
2019-02-21T14:02:21.470Z,14.50
2019-02-21T14:07:16.549Z,13.90
2019-02-21T14:12:11.641Z,14.67
2019-02-21T14:17:05.969Z,14.20
2019-02-21T14:22:01.019Z,13.07
2019-02-21T14:26:59.840Z,14.50
2019-02-21T14:32:00.387Z,14.03
2019-02-21T14:36:55.397Z,15.57
2019-02-21T14:41:55.564Z,17.50
2019-02-21T14:46:50.340Z,16.27
2019-02-21T14:51:49.268Z,16.10
2019-02-21T14:56:48.935Z,18.13
2019-02-21T15:01:46.140Z,16.63
2019-02-21T15:06:45.891Z,18.67
2019-02-21T15:11:40.305Z,18.27
2019-02-21T15:16:36.277Z,19.23
2019-02-21T15:21:32.009Z,20.43
2019-02-21T15:26:29.155Z,19.33
2019-02-21T15:31:26.317Z,20.00
2019-02-21T15:36:25.236Z,21.37
2019-02-21T15:41:19.955Z,21.50
2019-02-21T15:46:20.213Z,21.20
2019-02-21T15:51:18.320Z,21.90
2019-02-21T15:56:18.245Z,21.80
2019-02-21T16:01:14.233Z,21.20
2019-02-21T16:06:10.996Z,19.10
2019-02-21T16:11:06.877Z,20.03
2019-02-21T16:16:04.931Z,19.90
2019-02-21T16:20:59.197Z,20.37
2019-02-21T16:25:54.606Z,18.87
2019-02-21T16:30:51.337Z,20.93
2019-02-21T16:35:46.508Z,20.67
2019-02-21T16:40:42.382Z,20.63
2019-02-21T16:45:43.388Z,21.23
2019-02-21T16:50:36.250Z,22.67
2019-02-21T16:55:30.839Z,22.47
2019-02-21T17:00:37.262Z,20.97
2019-02-21T17:05:29.850Z,20.40
2019-02-21T17:10:24.577Z,19.57
2019-02-21T17:15:21.535Z,18.23
2019-02-21T17:20:23.022Z,18.57
2019-02-21T17:25:18.434Z,19.77
2019-02-21T17:30:30.339Z,22.03
2019-02-21T17:35:24.703Z,29.27
2019-02-21T17:40:21.151Z,26.43
2019-02-21T17:45:19.150Z,37.30
2019-02-21T17:50:17.807Z,48.63
2019-02-21T17:55:14.529Z,26.87
2019-02-21T18:00:17.335Z,41.00
2019-02-21T18:05:16.573Z,35.33
2019-02-21T18:10:18.791Z,19.70
2019-02-21T18:15:15.545Z,15.40
2019-02-21T18:20:14.996Z,15.37
2019-02-21T18:25:33.129Z,15.73
2019-02-21T18:30:27.343Z,15.33
2019-02-21T18:35:25.386Z,15.60
2019-02-21T18:40:25.202Z,19.50
2019-02-21T18:45:19.271Z,16.93
2019-02-21T18:50:23.001Z,16.23
2019-02-21T18:55:16.902Z,15.83
2019-02-21T19:00:25.169Z,18.00
2019-02-21T19:05:21.335Z,17.70
2019-02-21T19:10:21.634Z,18.73
2019-02-21T19:15:27.178Z,19.33
2019-02-21T19:20:22.842Z,22.20
2019-02-21T19:25:22.515Z,22.40
2019-02-21T19:30:34.674Z,21.30
2019-02-21T19:35:29.747Z,20.83
2019-02-21T19:40:26.757Z,21.07
2019-02-21T19:45:24.703Z,20.73
2019-02-21T19:50:21.067Z,19.70
2019-02-21T19:55:16.452Z,20.60
2019-02-21T20:00:21.714Z,20.80
2019-02-21T20:05:17.069Z,22.37
2019-02-21T20:10:14.635Z,22.33
2019-02-21T20:15:16.232Z,22.80
2019-02-21T20:20:16.471Z,22.10
2019-02-21T20:25:12.827Z,25.10
2019-02-21T20:30:10.376Z,22.03
2019-02-21T20:35:09.500Z,24.77
2019-02-21T20:40:06.252Z,24.37
2019-02-21T20:45:07.319Z,28.70
2019-02-21T20:50:05.629Z,27.33
2019-02-21T20:55:05.361Z,27.00
2019-02-21T21:00:03.685Z,28.07
2019-02-21T21:05:00.408Z,27.20
2019-02-21T21:09:59.794Z,30.77
2019-02-21T21:14:55.762Z,26.77
2019-02-21T21:19:54.975Z,27.50
2019-02-21T21:24:52.016Z,37.97
2019-02-21T21:29:51.082Z,32.33
2019-02-21T21:34:47.113Z,38.80
2019-02-21T21:39:42.983Z,32.47
2019-02-21T21:44:37.256Z,32.43
2019-02-21T21:49:31.297Z,32.80
2019-02-21T21:54:28.122Z,34.43
2019-02-21T21:59:24.881Z,39.10
2019-02-21T22:04:21.167Z,33.87
2019-02-21T22:09:17.864Z,47.20
2019-02-21T22:14:14.026Z,34.60
2019-02-21T22:19:10.690Z,36.33
2019-02-21T22:24:06.407Z,61.73
2019-02-21T22:29:00.947Z,35.20
2019-02-21T22:33:55.806Z,37.87
2019-02-21T22:38:52.382Z,37.73
2019-02-21T22:43:46.983Z,39.53
2019-02-21T22:48:47.133Z,53.57
2019-02-21T22:53:39.373Z,48.87
2019-02-21T22:58:44.366Z,45.20
2019-02-21T23:03:45.639Z,42.03
2019-02-21T23:08:48.603Z,40.90
2019-02-21T23:13:43.498Z,38.27
2019-02-21T23:18:43.051Z,41.97
2019-02-21T23:23:37.877Z,39.73
2019-02-21T23:28:32.251Z,40.03
2019-02-21T23:33:28.374Z,40.50
2019-02-21T23:38:26.536Z,39.53
2019-02-21T23:43:22.442Z,51.47
2019-02-21T23:48:17.815Z,49.30
2019-02-21T23:53:15.924Z,40.60
2019-02-21T23:58:13.455Z,42.17
